Vidnoe, Russia
Current Conditions -  °F | °C
As of 12:00 AM on Tuesday 23 Dec 2014 (Local Time) from UUMO Reporting Station
Broken Clouds Broken Clouds  
Wind Chill: 18°   Ceiling: 3300
Heat Index: 27°   Visibility: 6mi
Dew Point: 21°   Wind: 9mph
Humidity: 80%   Direction: 170°S
Pressure: 29.38"   Gusts: NA
Location:  55.55°N, 37.71°E
Report Text: UUMO 222100Z 17004MPS 9999 BKN033 M03/M06 Q0995 NOSIG RMKQFE731/0975 26810250
Loading
Personal Weather Stations






























Interactive Weather Map New forecast layout! Learn more

10-Day Weather Forecast

Advertisements
Track Severe Weather on mobile